createdAt,value
2018-10-15T03:39:27.299Z,95502.00
2018-10-15T03:41:58.209Z,95513.00
2018-10-15T03:44:28.802Z,95500.00
2018-10-15T03:46:59.720Z,95512.00
2018-10-15T03:49:30.277Z,95515.00
2018-10-15T03:52:01.338Z,95511.00
2018-10-15T03:54:31.789Z,95520.00
2018-10-15T03:57:02.646Z,95514.00
2018-10-15T03:59:33.186Z,95523.00
2018-10-15T04:02:03.764Z,95518.00
2018-10-15T04:04:34.257Z,95512.00
2018-10-15T04:07:05.222Z,95511.00
2018-10-15T04:09:36.012Z,95512.00
2018-10-15T04:12:06.455Z,95516.00
2018-10-15T04:14:36.854Z,95513.00
2018-10-15T04:17:07.159Z,95514.00
2018-10-15T04:19:37.519Z,95515.00
2018-10-15T04:22:07.891Z,95521.00
2018-10-15T04:24:38.160Z,95524.00
2018-10-15T04:27:08.591Z,95526.00
2018-10-15T04:29:38.888Z,95522.00
2018-10-15T04:32:09.666Z,95523.00
2018-10-15T04:34:39.958Z,95520.00
2018-10-15T04:37:11.064Z,95530.00
2018-10-15T04:39:41.369Z,95521.00
2018-10-15T04:42:12.331Z,95514.00
2018-10-15T04:44:42.884Z,95518.00
2018-10-15T04:47:13.239Z,95524.00
2018-10-15T04:49:44.020Z,95533.00
2018-10-15T04:52:15.366Z,95533.00
2018-10-15T04:54:45.697Z,95522.00
2018-10-15T04:57:17.574Z,95520.00
2018-10-15T04:59:48.009Z,95528.00
2018-10-15T05:02:18.571Z,95538.00
2018-10-15T05:04:48.911Z,95532.00
2018-10-15T05:07:19.309Z,95528.00
2018-10-15T05:09:49.603Z,95538.00
2018-10-15T05:12:20.096Z,95534.00
2018-10-15T05:14:50.337Z,95538.00
2018-10-15T05:17:20.661Z,95537.00
2018-10-15T05:19:50.994Z,95543.00
2018-10-15T05:22:21.325Z,95549.00
2018-10-15T05:24:51.626Z,95548.00
2018-10-15T05:27:21.973Z,95547.00
2018-10-15T05:29:52.218Z,95538.00
2018-10-15T05:32:22.512Z,95547.00
2018-10-15T05:34:52.881Z,95564.00
2018-10-15T05:37:24.024Z,95546.00
2018-10-15T05:39:54.678Z,95551.00
2018-10-15T05:42:25.000Z,95557.00
2018-10-15T05:44:55.471Z,95563.00
2018-10-15T05:47:26.182Z,95565.00
2018-10-15T05:49:56.760Z,95557.00
2018-10-15T05:52:27.262Z,95573.00
2018-10-15T05:54:57.874Z,95569.00
2018-10-15T05:57:29.993Z,95569.00
2018-10-15T06:00:00.318Z,95571.00
2018-10-15T06:02:30.915Z,95576.00
2018-10-15T06:05:01.228Z,95573.00
2018-10-15T06:07:32.219Z,95579.00
2018-10-15T06:10:02.540Z,95574.00
2018-10-15T06:12:33.074Z,95579.00
2018-10-15T06:15:03.422Z,95583.00
2018-10-15T06:17:34.058Z,95580.00
2018-10-15T06:20:05.183Z,95584.00
2018-10-15T06:22:35.900Z,95584.00
2018-10-15T06:25:06.969Z,95582.00
2018-10-15T06:27:37.911Z,95578.00
2018-10-15T06:30:11.252Z,95578.00
2018-10-15T06:32:41.921Z,95588.00
2018-10-15T06:35:12.314Z,95578.00
2018-10-15T06:37:43.869Z,95588.00
2018-10-15T06:40:14.225Z,95580.00
2018-10-15T06:42:45.070Z,95581.00
2018-10-15T06:45:15.429Z,95582.00
2018-10-15T06:47:45.793Z,95589.00
2018-10-15T06:50:16.583Z,95577.00
2018-10-15T06:52:47.013Z,95585.00
2018-10-15T06:55:18.272Z,95581.00
2018-10-15T06:57:48.571Z,95590.00
2018-10-15T07:00:20.055Z,95583.00
2018-10-15T07:02:50.395Z,95581.00
2018-10-15T07:05:20.891Z,95585.00
2018-10-15T07:07:51.371Z,95599.00
2018-10-15T07:10:21.726Z,95592.00
2018-10-15T07:12:52.044Z,95596.00
2018-10-15T07:15:22.357Z,95599.00
2018-10-15T07:17:52.686Z,95605.00
2018-10-15T07:20:23.209Z,95605.00
2018-10-15T07:22:53.751Z,95602.00
2018-10-15T07:25:26.987Z,95602.00
2018-10-15T07:27:58.041Z,95606.00
2018-10-15T07:30:32.366Z,95608.00
2018-10-15T07:33:02.798Z,95612.00
2018-10-15T07:35:34.406Z,95625.00
2018-10-15T07:38:05.083Z,95623.00
2018-10-15T07:40:36.631Z,95625.00
2018-10-15T07:43:07.438Z,95631.00
2018-10-15T07:45:38.240Z,95623.00
2018-10-15T07:48:10.130Z,95628.00
2018-10-15T07:50:41.110Z,95625.00
2018-10-15T07:53:12.847Z,95619.00
2018-10-15T07:55:46.740Z,95620.00
2018-10-15T07:58:18.951Z,95621.00
2018-10-15T08:00:49.652Z,95620.00
2018-10-15T08:03:21.624Z,95615.00
2018-10-15T08:05:53.720Z,95610.00
2018-10-15T08:08:26.222Z,95617.00
2018-10-15T08:10:57.717Z,95611.00
2018-10-15T08:13:29.828Z,95609.00
2018-10-15T08:16:03.351Z,95610.00
2018-10-15T08:18:34.533Z,95606.00
2018-10-15T08:21:05.836Z,95607.00
2018-10-15T08:23:36.376Z,95610.00
2018-10-15T08:26:06.829Z,95608.00
2018-10-15T08:28:37.501Z,95609.00
2018-10-15T08:31:07.877Z,95603.00
2018-10-15T08:33:38.395Z,95600.00
2018-10-15T08:36:08.746Z,95607.00
2018-10-15T08:38:39.063Z,95610.00
2018-10-15T08:41:09.533Z,95609.00
2018-10-15T08:43:39.987Z,95598.00
2018-10-15T08:46:10.395Z,95605.00
2018-10-15T08:48:41.179Z,95593.00
2018-10-15T08:51:11.592Z,95599.00
2018-10-15T08:53:42.038Z,95595.00
2018-10-15T08:56:12.411Z,95600.00
2018-10-15T08:58:42.934Z,95598.00
2018-10-15T09:01:13.368Z,95594.00
2018-10-15T09:03:44.021Z,95595.00
2018-10-15T09:06:14.535Z,95596.00
2018-10-15T09:08:45.204Z,95609.00
2018-10-15T09:11:15.370Z,95593.00
2018-10-15T09:13:45.731Z,95593.00
2018-10-15T09:16:16.066Z,95594.00
2018-10-15T09:18:46.492Z,95592.00
2018-10-15T09:21:16.836Z,95590.00
2018-10-15T09:23:47.280Z,95600.00
2018-10-15T09:26:17.640Z,95588.00
2018-10-15T09:28:48.422Z,95593.00
2018-10-15T09:31:18.784Z,95592.00
2018-10-15T09:33:49.224Z,95597.00
2018-10-15T09:36:20.799Z,95599.00
2018-10-15T09:38:51.188Z,95602.00
2018-10-15T09:41:21.501Z,95609.00
2018-10-15T09:43:51.963Z,95603.00
2018-10-15T09:46:22.385Z,95598.00
2018-10-15T09:48:52.855Z,95602.00
2018-10-15T09:51:23.191Z,95606.00
2018-10-15T09:53:53.589Z,95605.00
2018-10-15T09:56:23.906Z,95607.00
2018-10-15T09:58:54.270Z,95609.00
2018-10-15T10:01:26.747Z,95602.00
2018-10-15T10:03:57.119Z,95604.00
2018-10-15T10:06:27.656Z,95605.00
2018-10-15T10:08:58.101Z,95601.00
2018-10-15T10:11:28.564Z,95598.00
2018-10-15T10:13:59.063Z,95600.00
2018-10-15T10:16:29.323Z,95592.00
2018-10-15T10:19:00.119Z,95592.00
2018-10-15T10:21:30.371Z,95596.00
2018-10-15T10:24:00.850Z,95589.00
2018-10-15T10:26:34.659Z,95588.00
2018-10-15T10:29:05.461Z,95585.00
2018-10-15T10:31:37.501Z,95588.00
2018-10-15T10:34:14.284Z,95583.00
2018-10-15T10:36:49.345Z,95579.00
2018-10-15T10:39:20.186Z,95579.00
2018-10-15T10:41:51.304Z,95574.00
2018-10-15T10:44:22.392Z,95574.00
2018-10-15T10:46:52.831Z,95576.00
2018-10-15T10:49:23.181Z,95571.00
2018-10-15T10:51:53.513Z,95576.00
2018-10-15T10:54:23.839Z,95569.00
2018-10-15T10:56:54.157Z,95571.00
2018-10-15T10:59:24.502Z,95568.00
2018-10-15T11:01:55.055Z,95567.00
2018-10-15T11:04:25.428Z,95579.00
2018-10-15T11:06:55.774Z,95560.00
2018-10-15T11:09:26.087Z,95566.00
2018-10-15T11:11:56.575Z,95562.00
2018-10-15T11:14:27.870Z,95565.00
2018-10-15T11:16:58.535Z,95559.00
2018-10-15T11:19:29.078Z,95561.00
2018-10-15T11:22:00.317Z,95564.00
2018-10-15T11:24:30.746Z,95562.00
2018-10-15T11:27:01.295Z,95560.00
2018-10-15T11:29:32.340Z,95562.00
2018-10-15T11:32:02.772Z,95560.00
2018-10-15T11:34:33.527Z,95559.00
2018-10-15T11:37:03.745Z,95555.00
2018-10-15T11:39:47.046Z,95557.00
2018-10-15T11:42:21.518Z,95560.00
2018-10-15T11:44:51.819Z,95555.00
2018-10-15T11:47:22.418Z,95559.00
2018-10-15T11:49:53.206Z,95555.00
2018-10-15T11:52:23.594Z,95557.00
2018-10-15T11:54:53.954Z,95552.00
2018-10-15T11:57:24.335Z,95552.00
2018-10-15T11:59:54.688Z,95556.00
2018-10-15T12:02:25.576Z,95556.00
2018-10-15T12:04:55.826Z,95555.00
2018-10-15T12:07:27.374Z,95559.00
2018-10-15T12:09:58.214Z,95559.00
2018-10-15T12:12:28.978Z,95558.00
2018-10-15T12:14:59.467Z,95559.00
2018-10-15T12:17:31.161Z,95559.00
2018-10-15T12:20:05.359Z,95563.00
2018-10-15T12:22:37.163Z,95566.00
2018-10-15T12:25:12.548Z,95562.00
2018-10-15T12:27:47.359Z,95560.00
2018-10-15T12:30:18.948Z,95564.00
2018-10-15T12:32:50.545Z,95554.00
2018-10-15T12:35:23.458Z,95558.00
2018-10-15T12:37:54.543Z,95554.00
2018-10-15T12:40:25.075Z,95560.00
2018-10-15T12:42:55.486Z,95551.00
2018-10-15T12:45:31.575Z,95554.00
2018-10-15T12:48:05.218Z,95551.00
2018-10-15T12:50:36.886Z,95554.00
2018-10-15T12:53:08.280Z,95552.00
2018-10-15T12:55:39.918Z,95552.00
2018-10-15T12:58:11.283Z,95554.00
2018-10-15T13:00:45.127Z,95554.00
2018-10-15T13:03:19.317Z,95552.00
2018-10-15T13:05:49.859Z,95554.00
2018-10-15T13:08:21.025Z,95555.00
2018-10-15T13:10:51.713Z,95558.00
2018-10-15T13:13:24.327Z,95550.00
2018-10-15T13:15:57.893Z,95549.00
2018-10-15T13:18:31.569Z,95552.00
2018-10-15T13:21:11.415Z,95557.00
2018-10-15T13:23:54.712Z,95554.00
2018-10-15T13:26:25.240Z,95548.00
2018-10-15T13:28:55.745Z,95551.00
2018-10-15T13:31:26.292Z,95554.00
2018-10-15T13:33:57.136Z,95555.00
2018-10-15T13:36:28.148Z,95549.00
2018-10-15T13:38:59.132Z,95550.00
2018-10-15T13:41:30.532Z,95554.00
2018-10-15T13:44:01.211Z,95556.00
2018-10-15T13:46:34.662Z,95555.00
2018-10-15T13:49:06.914Z,95548.00
2018-10-15T13:51:37.364Z,95548.00
2018-10-15T13:54:08.825Z,95556.00
2018-10-15T13:56:39.431Z,95547.00
2018-10-15T13:59:09.882Z,95547.00
2018-10-15T14:01:41.061Z,95554.00
2018-10-15T14:04:19.936Z,95494.00
2018-10-15T14:06:51.190Z,95546.00
2018-10-15T14:09:21.589Z,95546.00
2018-10-15T14:11:52.180Z,95545.00
2018-10-15T14:14:23.492Z,95545.00
2018-10-15T14:16:57.021Z,95546.00
2018-10-15T14:19:28.366Z,95551.00
2018-10-15T14:21:58.794Z,95547.00
2018-10-15T14:24:29.201Z,95558.00
2018-10-15T14:27:02.471Z,95553.00
2018-10-15T14:29:34.469Z,95558.00
2018-10-15T14:32:05.394Z,95562.00
2018-10-15T14:34:35.937Z,95561.00
2018-10-15T14:37:06.654Z,95559.00
2018-10-15T14:39:37.347Z,95561.00
2018-10-15T14:42:07.982Z,95560.00
2018-10-15T14:44:39.849Z,95563.00
2018-10-15T14:47:10.201Z,95558.00
2018-10-15T14:49:40.917Z,95559.00
2018-10-15T14:52:11.355Z,95561.00
2018-10-15T14:54:42.025Z,95562.00
2018-10-15T14:57:19.268Z,95559.00
2018-10-15T14:59:49.895Z,95557.00
2018-10-15T15:02:24.627Z,95561.00
2018-10-15T15:04:56.421Z,95561.00
2018-10-15T15:07:28.633Z,95558.00
2018-10-15T15:10:17.594Z,95563.00
2018-10-15T15:13:06.644Z,95558.00
2018-10-15T15:15:40.915Z,95553.00
2018-10-15T15:18:11.775Z,95562.00
2018-10-15T15:20:47.747Z,95558.00
2018-10-15T15:23:18.979Z,95559.00
2018-10-15T15:25:49.360Z,95556.00
2018-10-15T15:28:19.917Z,95565.00
2018-10-15T15:30:50.439Z,95573.00
2018-10-15T15:33:21.336Z,95571.00
2018-10-15T15:35:51.764Z,95571.00
2018-10-15T15:38:22.510Z,95572.00
2018-10-15T15:40:52.842Z,95570.00
2018-10-15T15:43:23.301Z,95574.00
2018-10-15T15:45:54.643Z,95570.00
2018-10-15T15:48:26.047Z,95574.00
2018-10-15T15:50:57.266Z,95575.00
2018-10-15T15:53:32.456Z,95574.00
2018-10-15T15:56:03.404Z,95520.00
2018-10-15T15:58:35.053Z,95576.00
2018-10-15T16:01:06.060Z,95593.00
2018-10-15T16:03:36.373Z,95580.00
2018-10-15T16:06:07.042Z,95589.00
2018-10-15T16:08:38.755Z,95588.00
2018-10-15T16:11:09.642Z,95593.00
2018-10-15T16:13:43.471Z,95590.00
2018-10-15T16:16:14.786Z,95599.00
2018-10-15T16:18:47.548Z,95602.00
2018-10-15T16:21:27.262Z,95646.00
2018-10-15T16:24:17.831Z,95603.00
2018-10-15T16:26:50.739Z,95603.00
2018-10-15T16:29:52.573Z,95605.00
2018-10-15T16:32:36.278Z,95611.00
2018-10-15T16:39:03.361Z,95612.00
2018-10-15T16:41:35.206Z,95624.00
2018-10-15T16:44:05.993Z,95493.00
2018-10-15T16:46:37.640Z,95628.00
2018-10-15T16:49:09.116Z,95624.00
2018-10-15T16:51:40.349Z,95637.00
2018-10-15T16:54:12.909Z,95643.00
2018-10-15T16:56:47.014Z,95639.00
2018-10-15T16:59:19.569Z,95635.00
2018-10-15T17:01:51.185Z,95635.00
2018-10-15T17:04:21.594Z,95639.00
2018-10-15T17:06:52.026Z,95640.00
2018-10-15T17:09:27.092Z,95639.00
2018-10-15T17:11:58.978Z,95642.00
2018-10-15T17:14:29.602Z,95641.00
2018-10-15T17:17:00.814Z,95649.00
2018-10-15T17:19:33.478Z,95653.00
2018-10-15T17:22:07.935Z,95656.00
2018-10-15T17:24:39.768Z,95656.00
2018-10-15T17:27:13.855Z,95655.00
2018-10-15T17:29:45.350Z,95666.00
2018-10-15T17:32:16.396Z,95658.00
2018-10-15T17:34:47.414Z,95662.00
2018-10-15T17:37:18.099Z,95661.00
2018-10-15T17:39:48.723Z,95666.00
2018-10-15T17:42:26.570Z,95661.00
2018-10-15T17:44:59.409Z,95664.00
2018-10-15T17:47:34.278Z,95665.00
2018-10-15T17:50:07.205Z,95667.00
2018-10-15T17:52:38.479Z,95682.00
2018-10-15T17:55:55.851Z,95670.00
2018-10-15T17:58:34.722Z,95673.00
2018-10-15T18:01:05.786Z,95678.00
2018-10-15T18:03:36.832Z,95676.00
2018-10-15T18:06:07.176Z,95669.00
2018-10-15T18:08:50.503Z,95674.00
2018-10-15T18:11:28.879Z,95677.00
2018-10-15T18:14:06.158Z,95676.00
2018-10-15T18:16:51.906Z,95674.00
2018-10-15T18:19:29.075Z,95669.00
2018-10-15T18:22:01.313Z,95674.00
2018-10-15T18:24:40.932Z,95686.00
2018-10-15T18:27:12.530Z,95676.00
2018-10-15T18:29:43.295Z,95675.00
2018-10-15T18:32:13.942Z,95674.00
2018-10-15T18:34:44.542Z,95677.00
2018-10-15T18:37:14.929Z,95683.00
2018-10-15T18:39:45.547Z,95678.00
2018-10-15T18:42:16.132Z,95675.00
2018-10-15T18:44:47.318Z,95673.00
2018-10-15T18:47:17.715Z,95685.00
2018-10-15T18:49:50.822Z,95684.00
2018-10-15T18:52:22.984Z,95682.00
2018-10-15T18:54:55.293Z,95682.00
2018-10-15T18:57:26.231Z,95680.00
2018-10-15T18:59:58.593Z,95687.00
2018-10-15T19:02:41.958Z,95682.00
2018-10-15T19:05:16.562Z,95697.00
2018-10-15T19:07:54.274Z,95699.00
2018-10-15T19:10:24.942Z,95699.00
2018-10-15T19:12:57.143Z,95698.00
2018-10-15T19:15:30.277Z,95698.00
2018-10-15T19:18:04.244Z,95700.00
2018-10-15T19:20:46.767Z,95698.00
2018-10-15T19:23:22.650Z,95691.00
2018-10-15T20:57:36.903Z,95746.00
2018-10-15T21:00:09.724Z,95743.00
2018-10-15T21:02:40.579Z,95743.00
2018-10-15T21:05:11.555Z,95744.00
2018-10-15T21:07:42.595Z,95745.00
2018-10-15T21:10:12.883Z,95740.00
2018-10-15T21:12:43.541Z,95749.00
2018-10-15T21:15:14.035Z,95747.00
2018-10-15T21:17:44.396Z,95739.00
2018-10-15T21:20:14.732Z,95743.00
2018-10-15T21:22:45.024Z,95743.00
2018-10-15T21:25:15.312Z,95753.00
2018-10-15T21:27:45.579Z,95746.00
2018-10-15T21:30:16.206Z,95747.00
2018-10-15T21:32:46.502Z,95751.00
2018-10-15T21:35:17.366Z,95750.00
2018-10-15T21:37:47.777Z,95750.00
2018-10-15T21:40:18.161Z,95758.00
2018-10-15T21:42:48.547Z,95756.00
2018-10-15T21:45:19.124Z,95757.00
2018-10-15T21:47:49.387Z,95758.00
2018-10-15T21:50:19.687Z,95750.00
2018-10-15T21:52:50.059Z,95762.00
2018-10-15T21:55:20.688Z,95759.00
2018-10-15T21:57:51.288Z,95757.00
2018-10-15T22:00:21.852Z,95756.00
2018-10-15T22:02:52.158Z,95760.00
2018-10-15T22:05:22.599Z,95766.00
2018-10-15T22:07:52.868Z,95770.00
2018-10-15T22:10:28.463Z,95768.00
2018-10-15T22:12:59.035Z,95766.00
2018-10-15T22:15:29.281Z,95766.00
2018-10-15T22:17:59.951Z,95760.00
2018-10-15T22:20:30.349Z,95762.00
2018-10-15T22:23:00.878Z,95765.00
2018-10-15T22:25:31.915Z,95766.00
2018-10-15T22:28:02.788Z,95764.00
2018-10-15T22:30:33.127Z,95757.00
2018-10-15T22:33:03.466Z,95762.00
2018-10-15T22:35:33.975Z,95765.00
2018-10-15T22:38:04.338Z,95771.00
2018-10-15T22:40:35.003Z,95755.00
2018-10-15T22:43:05.464Z,95767.00
2018-10-15T22:45:35.695Z,95769.00
2018-10-15T22:48:06.827Z,95772.00
2018-10-15T22:50:37.136Z,95766.00
2018-10-15T22:53:07.399Z,95769.00
2018-10-15T22:55:37.703Z,95772.00
2018-10-15T22:58:07.991Z,95769.00
2018-10-15T23:00:38.354Z,95771.00
2018-10-15T23:03:08.622Z,95775.00
2018-10-15T23:05:38.913Z,95771.00
2018-10-15T23:08:09.195Z,95772.00
2018-10-15T23:10:39.683Z,95775.00
2018-10-15T23:13:09.947Z,95772.00
2018-10-15T23:15:40.245Z,95779.00
2018-10-15T23:18:10.574Z,95773.00
2018-10-15T23:20:41.054Z,95784.00
2018-10-15T23:23:11.330Z,95786.00
2018-10-15T23:25:42.067Z,95786.00
2018-10-15T23:28:12.315Z,95787.00
2018-10-15T23:30:42.918Z,95786.00
2018-10-15T23:33:13.235Z,95781.00
2018-10-15T23:35:44.149Z,95781.00
2018-10-15T23:38:14.450Z,95793.00
2018-10-15T23:40:44.755Z,95789.00
2018-10-15T23:43:15.057Z,95791.00
2018-10-15T23:45:45.343Z,95791.00
2018-10-15T23:48:15.635Z,95789.00
2018-10-15T23:50:45.932Z,95798.00
2018-10-15T23:53:16.189Z,95805.00
2018-10-15T23:55:46.506Z,95804.00
2018-10-15T23:58:16.776Z,95796.00
